Airfield :







YOU CAN JOIN US ON...

 
LOGIN :

Register | Disclaimer

   EN    FR    IT 

 









Legend :    VFR   Marginal VFR   IFR   Intensive IFR   Very Intensive IFR
Visi :
Ceiling :
>= 8 km
>= 3000ft
5 to 8 km
1000 to 3000 ft
1500m to 5 km
500 to 1000 ft
800 to 1500m
200 to 500 ft
< 800m
< 200 ft
Symbols :   Thunderstorms  Fog  Heavy snow  Heavy precipitations  Wind > 20 kt







- Airport Elevation : 92 ft
- IATA code : YZX


CYZX - CFB Greenwood

CURRENT METAR :
  • 160200Z 24008KT 15SM BKN057 14/13 A2996 RMK SC6 SLP146

EXPIRED METARs :
  • 160100Z 25007KT 15SM BKN050 BKN250 15/13 A2996 RMK SC5CI2 SLP146
  • 160000Z 25007KT 15SM FEW050 SCT250 17/13 A2996 RMK SC2CI2 SLP145

TAF TAF CYZX
Valid from the 16 at 00:00 until the 17 at 00:00 UTC


152330Z 1600/1624 25005KT P6SM SCT050
BECMG 1601/1603 VRB03KT BKN050 OVC120
FM160900 28008KT P6SM BKN040
FM161200 30012KT P6SM SCT020
TEMPO 1612/1617 BKN020
FM161700 30012KT P6SM BKN030
BECMG 1623/1624 VRB03KT RMK NXT FCST BY 160600Z
No reported NOTAMs for that airfield.



MET'MAP, your aeronautical weather chart ! - Copyright ORBIFLY December 2007 - Disclaimer

ORBIFLY MET'MAP TEAM :

Programming & Development : Alexandra Zaïnal
Concept & Development : Baudouin d'Aumeries
Co-Development & Prog : Marc-Olivier Méhu
Technical & hardware support : Manuel Goepfert

Contact : metmap@orbifly.com




SOURCES & CREDITS :

   NOAA